sensor_id;sensor_type;location;lat;lon;timestamp;pressure;altitude;pressure_sealevel;temperature;humidity
71248;BME280;73325;51.138;6.950;2024-03-06T00:01:35;101217.00;;;5.58;100.00
71248;BME280;73325;51.138;6.950;2024-03-06T00:04:05;101218.00;;;5.59;100.00
71248;BME280;73325;51.138;6.950;2024-03-06T00:06:36;101220.00;;;5.60;100.00
71248;BME280;73325;51.138;6.950;2024-03-06T00:09:06;101221.00;;;5.61;100.00
71248;BME280;73325;51.138;6.950;2024-03-06T00:11:36;101223.00;;;5.61;100.00
71248;BME280;73325;51.138;6.950;2024-03-06T00:14:07;101223.00;;;5.61;100.00
71248;BME280;73325;51.138;6.950;2024-03-06T00:16:37;101225.00;;;5.61;100.00
71248;BME280;73325;51.138;6.950;2024-03-06T00:19:07;101227.00;;;5.60;100.00
71248;BME280;73325;51.138;6.950;2024-03-06T00:21:37;101227.00;;;5.58;100.00
71248;BME280;73325;51.138;6.950;2024-03-06T00:24:07;101229.00;;;5.55;100.00
71248;BME280;73325;51.138;6.950;2024-03-06T00:26:39;101230.00;;;5.52;100.00
71248;BME280;73325;51.138;6.950;2024-03-06T00:29:08;101233.00;;;5.48;100.00
71248;BME280;73325;51.138;6.950;2024-03-06T00:31:45;101237.00;;;5.43;100.00
71248;BME280;73325;51.138;6.950;2024-03-06T00:34:09;101240.00;;;5.37;100.00
71248;BME280;73325;51.138;6.950;2024-03-06T00:36:40;101244.00;;;5.31;100.00
71248;BME280;73325;51.138;6.950;2024-03-06T00:39:10;101248.00;;;5.24;100.00
71248;BME280;73325;51.138;6.950;2024-03-06T00:41:41;101252.00;;;5.17;100.00
71248;BME280;73325;51.138;6.950;2024-03-06T00:44:11;101256.00;;;5.11;100.00
71248;BME280;73325;51.138;6.950;2024-03-06T00:46:42;101258.00;;;5.04;100.00
71248;BME280;73325;51.138;6.950;2024-03-06T00:49:12;101261.00;;;4.99;100.00
71248;BME280;73325;51.138;6.950;2024-03-06T00:51:42;101264.00;;;4.93;100.00
71248;BME280;73325;51.138;6.950;2024-03-06T00:54:13;101268.00;;;4.88;100.00
71248;BME280;73325;51.138;6.950;2024-03-06T00:56:43;101271.00;;;4.83;100.00
71248;BME280;73325;51.138;6.950;2024-03-06T00:59:14;101274.00;;;4.78;100.00
71248;BME280;73325;51.138;6.950;2024-03-06T01:01:44;101278.00;;;4.74;100.00
71248;BME280;73325;51.138;6.950;2024-03-06T01:04:14;101282.00;;;4.71;100.00
71248;BME280;73325;51.138;6.950;2024-03-06T01:06:44;101286.00;;;4.67;100.00
71248;BME280;73325;51.138;6.950;2024-03-06T01:09:15;101289.00;;;4.64;100.00
71248;BME280;73325;51.138;6.950;2024-03-06T01:11:45;101291.00;;;4.60;100.00
71248;BME280;73325;51.138;6.950;2024-03-06T01:14:16;101293.00;;;4.57;100.00
71248;BME280;73325;51.138;6.950;2024-03-06T01:16:46;101294.00;;;4.54;100.00
71248;BME280;73325;51.138;6.950;2024-03-06T01:19:16;101295.00;;;4.52;100.00
71248;BME280;73325;51.138;6.950;2024-03-06T01:21:46;101297.00;;;4.50;100.00
71248;BME280;73325;51.138;6.950;2024-03-06T01:24:17;101300.00;;;4.49;100.00
71248;BME280;73325;51.138;6.950;2024-03-06T01:26:47;101303.00;;;4.48;100.00
71248;BME280;73325;51.138;6.950;2024-03-06T01:29:17;101304.00;;;4.47;100.00
71248;BME280;73325;51.138;6.950;2024-03-06T01:31:47;101305.00;;;4.47;100.00
71248;BME280;73325;51.138;6.950;2024-03-06T01:34:18;101306.00;;;4.46;100.00
71248;BME280;73325;51.138;6.950;2024-03-06T01:36:48;101307.00;;;4.45;100.00
71248;BME280;73325;51.138;6.950;2024-03-06T01:39:19;101306.00;;;4.43;100.00
71248;BME280;73325;51.138;6.950;2024-03-06T01:41:50;101306.00;;;4.41;100.00
71248;BME280;73325;51.138;6.950;2024-03-06T01:44:19;101308.00;;;4.38;100.00
71248;BME280;73325;51.138;6.950;2024-03-06T01:46:49;101308.00;;;4.36;100.00
71248;BME280;73325;51.138;6.950;2024-03-06T01:49:21;101308.00;;;4.33;100.00
71248;BME280;73325;51.138;6.950;2024-03-06T01:51:54;101308.00;;;4.30;100.00
71248;BME280;73325;51.138;6.950;2024-03-06T01:54:21;101310.00;;;4.27;100.00
71248;BME280;73325;51.138;6.950;2024-03-06T01:56:51;101310.00;;;4.23;100.00
71248;BME280;73325;51.138;6.950;2024-03-06T01:59:25;101311.00;;;4.20;100.00
71248;BME280;73325;51.138;6.950;2024-03-06T02:01:53;101312.00;;;4.17;100.00
71248;BME280;73325;51.138;6.950;2024-03-06T02:04:24;101313.00;;;4.14;100.00
71248;BME280;73325;51.138;6.950;2024-03-06T02:06:54;101313.00;;;4.11;100.00
71248;BME280;73325;51.138;6.950;2024-03-06T02:09:25;101314.00;;;4.07;100.00
71248;BME280;73325;51.138;6.950;2024-03-06T02:11:55;101315.00;;;4.04;100.00
71248;BME280;73325;51.138;6.950;2024-03-06T02:14:25;101317.00;;;4.01;100.00
71248;BME280;73325;51.138;6.950;2024-03-06T02:16:55;101319.00;;;3.98;100.00
71248;BME280;73325;51.138;6.950;2024-03-06T02:19:40;101320.00;;;3.96;100.00
71248;BME280;73325;51.138;6.950;2024-03-06T02:21:56;101321.00;;;3.95;100.00
71248;BME280;73325;51.138;6.950;2024-03-06T02:24:26;101322.00;;;3.95;100.00
71248;BME280;73325;51.138;6.950;2024-03-06T02:26:57;101324.00;;;3.97;100.00
71248;BME280;73325;51.138;6.950;2024-03-06T02:29:27;101325.00;;;4.01;100.00
71248;BME280;73325;51.138;6.950;2024-03-06T02:31:57;101326.00;;;4.05;100.00
71248;BME280;73325;51.138;6.950;2024-03-06T02:34:28;101327.00;;;4.10;100.00
71248;BME280;73325;51.138;6.950;2024-03-06T02:36:58;101328.00;;;4.17;100.00
71248;BME280;73325;51.138;6.950;2024-03-06T02:39:31;101330.00;;;4.24;100.00
71248;BME280;73325;51.138;6.950;2024-03-06T02:41:58;101331.00;;;4.31;100.00
71248;BME280;73325;51.138;6.950;2024-03-06T02:44:29;101331.00;;;4.39;100.00
71248;BME280;73325;51.138;6.950;2024-03-06T02:46:59;101330.00;;;4.47;100.00
71248;BME280;73325;51.138;6.950;2024-03-06T02:49:29;101330.00;;;4.55;100.00
71248;BME280;73325;51.138;6.950;2024-03-06T02:51:59;101329.00;;;4.63;100.00
71248;BME280;73325;51.138;6.950;2024-03-06T02:54:30;101329.00;;;4.71;100.00
71248;BME280;73325;51.138;6.950;2024-03-06T02:57:00;101327.00;;;4.79;100.00
71248;BME280;73325;51.138;6.950;2024-03-06T02:59:30;101327.00;;;4.86;100.00
71248;BME280;73325;51.138;6.950;2024-03-06T03:02:01;101327.00;;;4.93;100.00
71248;BME280;73325;51.138;6.950;2024-03-06T03:04:31;101328.00;;;5.00;100.00
71248;BME280;73325;51.138;6.950;2024-03-06T03:07:01;101328.00;;;5.07;100.00
71248;BME280;73325;51.138;6.950;2024-03-06T03:09:31;101329.00;;;5.13;100.00
71248;BME280;73325;51.138;6.950;2024-03-06T03:12:02;101329.00;;;5.18;100.00
71248;BME280;73325;51.138;6.950;2024-03-06T03:14:32;101329.00;;;5.24;100.00
71248;BME280;73325;51.138;6.950;2024-03-06T03:17:03;101330.00;;;5.29;100.00
71248;BME280;73325;51.138;6.950;2024-03-06T03:19:33;101331.00;;;5.34;100.00
71248;BME280;73325;51.138;6.950;2024-03-06T03:22:03;101332.00;;;5.39;100.00
71248;BME280;73325;51.138;6.950;2024-03-06T03:24:33;101334.00;;;5.44;100.00
71248;BME280;73325;51.138;6.950;2024-03-06T03:27:04;101336.00;;;5.49;100.00
71248;BME280;73325;51.138;6.950;2024-03-06T03:29:34;101337.00;;;5.53;100.00
71248;BME280;73325;51.138;6.950;2024-03-06T03:32:05;101339.00;;;5.58;100.00
71248;BME280;73325;51.138;6.950;2024-03-06T03:34:35;101340.00;;;5.62;100.00
71248;BME280;73325;51.138;6.950;2024-03-06T03:37:05;101341.00;;;5.65;100.00
71248;BME280;73325;51.138;6.950;2024-03-06T03:39:35;101342.00;;;5.69;100.00
71248;BME280;73325;51.138;6.950;2024-03-06T03:42:06;101344.00;;;5.73;100.00
71248;BME280;73325;51.138;6.950;2024-03-06T03:44:36;101346.00;;;5.76;100.00
71248;BME280;73325;51.138;6.950;2024-03-06T03:47:06;101348.00;;;5.79;100.00
71248;BME280;73325;51.138;6.950;2024-03-06T03:49:37;101349.00;;;5.82;100.00
71248;BME280;73325;51.138;6.950;2024-03-06T03:52:07;101351.00;;;5.85;100.00
71248;BME280;73325;51.138;6.950;2024-03-06T03:54:37;101353.00;;;5.88;100.00
71248;BME280;73325;51.138;6.950;2024-03-06T03:57:08;101354.00;;;5.90;100.00
71248;BME280;73325;51.138;6.950;2024-03-06T03:59:38;101355.00;;;5.91;100.00
71248;BME280;73325;51.138;6.950;2024-03-06T04:02:08;101355.00;;;5.93;100.00
71248;BME280;73325;51.138;6.950;2024-03-06T04:04:38;101358.00;;;5.93;100.00
71248;BME280;73325;51.138;6.950;2024-03-06T04:07:09;101361.00;;;5.93;100.00
71248;BME280;73325;51.138;6.950;2024-03-06T04:09:39;101365.00;;;5.92;100.00
71248;BME280;73325;51.138;6.950;2024-03-06T04:12:10;101369.00;;;5.90;100.00
71248;BME280;73325;51.138;6.950;2024-03-06T04:14:40;101373.00;;;5.86;100.00
71248;BME280;73325;51.138;6.950;2024-03-06T04:17:10;101376.00;;;5.82;100.00
71248;BME280;73325;51.138;6.950;2024-03-06T04:19:40;101379.00;;;5.77;100.00
71248;BME280;73325;51.138;6.950;2024-03-06T04:22:11;101382.00;;;5.74;100.00
71248;BME280;73325;51.138;6.950;2024-03-06T04:24:41;101383.00;;;5.71;100.00
71248;BME280;73325;51.138;6.950;2024-03-06T04:27:12;101386.00;;;5.69;100.00
71248;BME280;73325;51.138;6.950;2024-03-06T04:29:42;101388.00;;;5.69;100.00
71248;BME280;73325;51.138;6.950;2024-03-06T04:32:12;101390.00;;;5.68;100.00
71248;BME280;73325;51.138;6.950;2024-03-06T04:34:42;101392.00;;;5.68;100.00
71248;BME280;73325;51.138;6.950;2024-03-06T04:37:12;101394.00;;;5.68;100.00
71248;BME280;73325;51.138;6.950;2024-03-06T04:39:43;101397.00;;;5.67;100.00
71248;BME280;73325;51.138;6.950;2024-03-06T04:42:13;101400.00;;;5.67;100.00
71248;BME280;73325;51.138;6.950;2024-03-06T04:44:45;101401.00;;;5.65;100.00
71248;BME280;73325;51.138;6.950;2024-03-06T04:47:14;101403.00;;;5.63;100.00
71248;BME280;73325;51.138;6.950;2024-03-06T04:49:44;101405.00;;;5.59;100.00
71248;BME280;73325;51.138;6.950;2024-03-06T04:52:14;101407.00;;;5.55;100.00
71248;BME280;73325;51.138;6.950;2024-03-06T04:54:45;101410.00;;;5.49;100.00
71248;BME280;73325;51.138;6.950;2024-03-06T04:57:15;101412.00;;;5.42;100.00
71248;BME280;73325;51.138;6.950;2024-03-06T04:59:45;101414.00;;;5.35;100.00
71248;BME280;73325;51.138;6.950;2024-03-06T05:02:15;101416.00;;;5.29;100.00
71248;BME280;73325;51.138;6.950;2024-03-06T05:04:46;101418.00;;;5.23;100.00
71248;BME280;73325;51.138;6.950;2024-03-06T05:07:16;101420.00;;;5.18;100.00
71248;BME280;73325;51.138;6.950;2024-03-06T05:09:46;101422.00;;;5.13;100.00
71248;BME280;73325;51.138;6.950;2024-03-06T05:12:16;101427.00;;;5.10;100.00
71248;BME280;73325;51.138;6.950;2024-03-06T05:14:47;101432.00;;;5.06;100.00
71248;BME280;73325;51.138;6.950;2024-03-06T05:17:17;101438.00;;;5.03;100.00
71248;BME280;73325;51.138;6.950;2024-03-06T05:19:48;101442.00;;;5.01;100.00
71248;BME280;73325;51.138;6.950;2024-03-06T05:22:18;101445.00;;;5.00;100.00
71248;BME280;73325;51.138;6.950;2024-03-06T05:24:48;101446.00;;;4.99;100.00
71248;BME280;73325;51.138;6.950;2024-03-06T05:27:18;101446.00;;;4.99;100.00
71248;BME280;73325;51.138;6.950;2024-03-06T05:29:49;101448.00;;;5.00;100.00
71248;BME280;73325;51.138;6.950;2024-03-06T05:32:19;101450.00;;;5.03;100.00
71248;BME280;73325;51.138;6.950;2024-03-06T05:34:49;101453.00;;;5.05;100.00
71248;BME280;73325;51.138;6.950;2024-03-06T05:37:19;101455.00;;;5.07;100.00
71248;BME280;73325;51.138;6.950;2024-03-06T05:39:50;101458.00;;;5.09;100.00
71248;BME280;73325;51.138;6.950;2024-03-06T05:42:20;101461.00;;;5.11;100.00
71248;BME280;73325;51.138;6.950;2024-03-06T05:44:50;101463.00;;;5.13;100.00
71248;BME280;73325;51.138;6.950;2024-03-06T05:47:20;101465.00;;;5.15;100.00
71248;BME280;73325;51.138;6.950;2024-03-06T05:49:51;101467.00;;;5.16;100.00
71248;BME280;73325;51.138;6.950;2024-03-06T05:52:21;101468.00;;;5.17;100.00
71248;BME280;73325;51.138;6.950;2024-03-06T05:54:51;101470.00;;;5.16;100.00
71248;BME280;73325;51.138;6.950;2024-03-06T05:57:22;101471.00;;;5.16;100.00
71248;BME280;73325;51.138;6.950;2024-03-06T05:59:52;101473.00;;;5.16;100.00
71248;BME280;73325;51.138;6.950;2024-03-06T06:02:22;101476.00;;;5.16;100.00
71248;BME280;73325;51.138;6.950;2024-03-06T06:04:53;101479.00;;;5.17;100.00
71248;BME280;73325;51.138;6.950;2024-03-06T06:07:23;101482.00;;;5.19;100.00
71248;BME280;73325;51.138;6.950;2024-03-06T06:09:53;101485.00;;;5.21;100.00
71248;BME280;73325;51.138;6.950;2024-03-06T06:12:24;101489.00;;;5.25;100.00
71248;BME280;73325;51.138;6.950;2024-03-06T06:14:54;101494.00;;;5.28;100.00
71248;BME280;73325;51.138;6.950;2024-03-06T06:17:24;101499.00;;;5.32;100.00
71248;BME280;73325;51.138;6.950;2024-03-06T06:19:54;101504.00;;;5.36;100.00
71248;BME280;73325;51.138;6.950;2024-03-06T06:22:27;101509.00;;;5.39;100.00
71248;BME280;73325;51.138;6.950;2024-03-06T06:24:55;101513.00;;;5.43;100.00
71248;BME280;73325;51.138;6.950;2024-03-06T06:27:25;101516.00;;;5.46;100.00
71248;BME280;73325;51.138;6.950;2024-03-06T06:29:56;101519.00;;;5.49;100.00
71248;BME280;73325;51.138;6.950;2024-03-06T06:32:26;101521.00;;;5.53;100.00
71248;BME280;73325;51.138;6.950;2024-03-06T06:34:56;101524.00;;;5.56;100.00
71248;BME280;73325;51.138;6.950;2024-03-06T06:37:27;101527.00;;;5.59;100.00
71248;BME280;73325;51.138;6.950;2024-03-06T06:39:57;101531.00;;;5.62;100.00
71248;BME280;73325;51.138;6.950;2024-03-06T06:42:27;101533.00;;;5.66;100.00
71248;BME280;73325;51.138;6.950;2024-03-06T06:44:58;101537.00;;;5.69;100.00
71248;BME280;73325;51.138;6.950;2024-03-06T06:47:28;101539.00;;;5.73;100.00
71248;BME280;73325;51.138;6.950;2024-03-06T06:49:58;101541.00;;;5.78;100.00
71248;BME280;73325;51.138;6.950;2024-03-06T06:52:29;101544.00;;;5.83;100.00
71248;BME280;73325;51.138;6.950;2024-03-06T06:54:59;101547.00;;;5.88;100.00
71248;BME280;73325;51.138;6.950;2024-03-06T06:57:30;101550.00;;;5.93;100.00
71248;BME280;73325;51.138;6.950;2024-03-06T07:00:01;101553.00;;;5.99;100.00
71248;BME280;73325;51.138;6.950;2024-03-06T07:02:30;101557.00;;;6.06;100.00
71248;BME280;73325;51.138;6.950;2024-03-06T07:05:00;101560.00;;;6.12;100.00
71248;BME280;73325;51.138;6.950;2024-03-06T07:07:31;101564.00;;;6.18;100.00
71248;BME280;73325;51.138;6.950;2024-03-06T07:10:05;101567.00;;;6.24;100.00
71248;BME280;73325;51.138;6.950;2024-03-06T07:12:32;101570.00;;;6.31;100.00
71248;BME280;73325;51.138;6.950;2024-03-06T07:15:03;101575.00;;;6.37;100.00
71248;BME280;73325;51.138;6.950;2024-03-06T07:17:33;101578.00;;;6.43;100.00
71248;BME280;73325;51.138;6.950;2024-03-06T07:20:05;101581.00;;;6.50;100.00
71248;BME280;73325;51.138;6.950;2024-03-06T07:22:34;101583.00;;;6.57;100.00
71248;BME280;73325;51.138;6.950;2024-03-06T07:25:04;101585.00;;;6.63;100.00
71248;BME280;73325;51.138;6.950;2024-03-06T07:27:35;101587.00;;;6.69;100.00
71248;BME280;73325;51.138;6.950;2024-03-06T07:30:06;101589.00;;;6.75;100.00
71248;BME280;73325;51.138;6.950;2024-03-06T07:32:35;101591.00;;;6.81;100.00
71248;BME280;73325;51.138;6.950;2024-03-06T07:35:06;101593.00;;;6.86;100.00
71248;BME280;73325;51.138;6.950;2024-03-06T07:37:36;101595.00;;;6.92;100.00
71248;BME280;73325;51.138;6.950;2024-03-06T07:40:07;101597.00;;;6.97;100.00
71248;BME280;73325;51.138;6.950;2024-03-06T07:42:37;101600.00;;;7.03;100.00
71248;BME280;73325;51.138;6.950;2024-03-06T07:45:08;101604.00;;;7.09;100.00
71248;BME280;73325;51.138;6.950;2024-03-06T07:47:38;101609.00;;;7.15;100.00
71248;BME280;73325;51.138;6.950;2024-03-06T07:50:10;101613.00;;;7.21;100.00
71248;BME280;73325;51.138;6.950;2024-03-06T07:52:39;101616.00;;;7.26;100.00
71248;BME280;73325;51.138;6.950;2024-03-06T07:55:09;101621.00;;;7.32;100.00
71248;BME280;73325;51.138;6.950;2024-03-06T07:57:40;101625.00;;;7.37;100.00
71248;BME280;73325;51.138;6.950;2024-03-06T08:00:10;101628.00;;;7.42;100.00
71248;BME280;73325;51.138;6.950;2024-03-06T08:02:41;101632.00;;;7.46;100.00
71248;BME280;73325;51.138;6.950;2024-03-06T08:05:11;101634.00;;;7.49;100.00
71248;BME280;73325;51.138;6.950;2024-03-06T08:07:40;101637.00;;;7.53;100.00
71248;BME280;73325;51.138;6.950;2024-03-06T08:10:12;101640.00;;;7.56;100.00
71248;BME280;73325;51.138;6.950;2024-03-06T08:12:42;101642.00;;;7.59;100.00
71248;BME280;73325;51.138;6.950;2024-03-06T08:15:13;101645.00;;;7.62;100.00
71248;BME280;73325;51.138;6.950;2024-03-06T08:17:43;101648.00;;;7.65;100.00
71248;BME280;73325;51.138;6.950;2024-03-06T08:20:14;101651.00;;;7.68;100.00
71248;BME280;73325;51.138;6.950;2024-03-06T08:22:44;101653.00;;;7.70;100.00
71248;BME280;73325;51.138;6.950;2024-03-06T08:25:14;101656.00;;;7.73;100.00
71248;BME280;73325;51.138;6.950;2024-03-06T08:27:44;101658.00;;;7.76;100.00
71248;BME280;73325;51.138;6.950;2024-03-06T08:30:15;101660.00;;;7.79;100.00
71248;BME280;73325;51.138;6.950;2024-03-06T08:32:45;101662.00;;;7.82;100.00
71248;BME280;73325;51.138;6.950;2024-03-06T08:35:15;101664.00;;;7.85;100.00
71248;BME280;73325;51.138;6.950;2024-03-06T08:37:46;101666.00;;;7.88;99.58
71248;BME280;73325;51.138;6.950;2024-03-06T08:40:17;101668.00;;;7.91;99.13
71248;BME280;73325;51.138;6.950;2024-03-06T08:42:47;101669.00;;;7.95;98.86
71248;BME280;73325;51.138;6.950;2024-03-06T08:45:17;101670.00;;;7.99;98.56
71248;BME280;73325;51.138;6.950;2024-03-06T08:47:48;101671.00;;;8.02;98.06
71248;BME280;73325;51.138;6.950;2024-03-06T08:50:18;101673.00;;;8.05;97.23
71248;BME280;73325;51.138;6.950;2024-03-06T08:52:49;101675.00;;;8.08;96.56
71248;BME280;73325;51.138;6.950;2024-03-06T08:55:19;101677.00;;;8.10;96.35
71248;BME280;73325;51.138;6.950;2024-03-06T08:57:49;101680.00;;;8.14;96.71
71248;BME280;73325;51.138;6.950;2024-03-06T09:00:19;101684.00;;;8.17;96.40
71248;BME280;73325;51.138;6.950;2024-03-06T09:02:50;101685.00;;;8.20;96.29
71248;BME280;73325;51.138;6.950;2024-03-06T09:05:20;101687.00;;;8.24;96.68
71248;BME280;73325;51.138;6.950;2024-03-06T09:07:50;101691.00;;;8.29;96.98
71248;BME280;73325;51.138;6.950;2024-03-06T09:10:21;101693.00;;;8.33;96.48
71248;BME280;73325;51.138;6.950;2024-03-06T09:12:51;101696.00;;;8.36;95.88
71248;BME280;73325;51.138;6.950;2024-03-06T09:15:22;101697.00;;;8.39;95.76
71248;BME280;73325;51.138;6.950;2024-03-06T09:17:52;101699.00;;;8.42;95.96
71248;BME280;73325;51.138;6.950;2024-03-06T09:20:22;101701.00;;;8.44;95.51
71248;BME280;73325;51.138;6.950;2024-03-06T09:22:52;101703.00;;;8.47;95.40
71248;BME280;73325;51.138;6.950;2024-03-06T09:25:23;101705.00;;;8.49;95.76
71248;BME280;73325;51.138;6.950;2024-03-06T09:27:53;101706.00;;;8.52;95.84
71248;BME280;73325;51.138;6.950;2024-03-06T09:30:23;101707.00;;;8.55;95.60
71248;BME280;73325;51.138;6.950;2024-03-06T09:32:54;101707.00;;;8.59;95.48
71248;BME280;73325;51.138;6.950;2024-03-06T09:35:24;101708.00;;;8.63;94.69
71248;BME280;73325;51.138;6.950;2024-03-06T09:37:54;101709.00;;;8.68;94.77
71248;BME280;73325;51.138;6.950;2024-03-06T09:40:24;101712.00;;;8.72;94.17
71248;BME280;73325;51.138;6.950;2024-03-06T09:42:55;101714.00;;;8.76;93.83
71248;BME280;73325;51.138;6.950;2024-03-06T09:45:25;101717.00;;;8.80;93.77
71248;BME280;73325;51.138;6.950;2024-03-06T09:47:56;101720.00;;;8.85;93.34
71248;BME280;73325;51.138;6.950;2024-03-06T09:50:28;101723.00;;;8.89;93.74
71248;BME280;73325;51.138;6.950;2024-03-06T09:52:57;101726.00;;;8.94;93.55
71248;BME280;73325;51.138;6.950;2024-03-06T09:55:27;101728.00;;;8.99;93.59
71248;BME280;73325;51.138;6.950;2024-03-06T09:57:58;101732.00;;;9.03;92.80
71248;BME280;73325;51.138;6.950;2024-03-06T10:00:28;101735.00;;;9.06;91.69
71248;BME280;73325;51.138;6.950;2024-03-06T10:02:58;101737.00;;;9.08;92.51
71248;BME280;73325;51.138;6.950;2024-03-06T10:05:28;101739.00;;;9.10;93.20
71248;BME280;73325;51.138;6.950;2024-03-06T10:08:00;101742.00;;;9.13;92.43
71248;BME280;73325;51.138;6.950;2024-03-06T10:10:30;101746.00;;;9.15;92.13
71248;BME280;73325;51.138;6.950;2024-03-06T10:13:00;101747.00;;;9.17;92.01
71248;BME280;73325;51.138;6.950;2024-03-06T10:15:31;101748.00;;;9.20;91.95
71248;BME280;73325;51.138;6.950;2024-03-06T10:18:15;101750.00;;;9.23;91.16
71248;BME280;73325;51.138;6.950;2024-03-06T10:20:35;101751.00;;;9.27;91.68
71248;BME280;73325;51.138;6.950;2024-03-06T10:23:02;101752.00;;;9.31;91.83
71248;BME280;73325;51.138;6.950;2024-03-06T10:25:32;101752.00;;;9.35;92.36
71248;BME280;73325;51.138;6.950;2024-03-06T10:28:09;101752.00;;;9.41;91.59
71248;BME280;73325;51.138;6.950;2024-03-06T10:30:40;101754.00;;;9.47;91.69
71248;BME280;73325;51.138;6.950;2024-03-06T10:33:04;101755.00;;;9.52;90.36
71248;BME280;73325;51.138;6.950;2024-03-06T10:35:34;101756.00;;;9.56;90.81
71248;BME280;73325;51.138;6.950;2024-03-06T10:38:05;101758.00;;;9.61;92.21
71248;BME280;73325;51.138;6.950;2024-03-06T10:40:36;101758.00;;;9.67;91.80
71248;BME280;73325;51.138;6.950;2024-03-06T10:43:07;101759.00;;;9.73;89.46
71248;BME280;73325;51.138;6.950;2024-03-06T10:45:48;101761.00;;;9.80;90.37
71248;BME280;73325;51.138;6.950;2024-03-06T10:48:07;101762.00;;;9.88;92.13
71248;BME280;73325;51.138;6.950;2024-03-06T10:50:39;101763.00;;;9.99;89.66
71248;BME280;73325;51.138;6.950;2024-03-06T10:53:09;101764.00;;;10.10;90.47
71248;BME280;73325;51.138;6.950;2024-03-06T10:55:37;101764.00;;;10.24;89.96
71248;BME280;73325;51.138;6.950;2024-03-06T10:58:08;101765.00;;;10.40;88.04
71248;BME280;73325;51.138;6.950;2024-03-06T11:00:44;101766.00;;;10.57;87.52
71248;BME280;73325;51.138;6.950;2024-03-06T11:03:10;101766.00;;;10.75;86.22
71248;BME280;73325;51.138;6.950;2024-03-06T11:05:44;101767.00;;;10.96;84.30
71248;BME280;73325;51.138;6.950;2024-03-06T11:08:12;101767.00;;;11.26;83.14
71248;BME280;73325;51.138;6.950;2024-03-06T11:10:42;101768.00;;;11.65;83.20
71248;BME280;73325;51.138;6.950;2024-03-06T11:13:23;101770.00;;;12.03;78.58
71248;BME280;73325;51.138;6.950;2024-03-06T11:15:42;101771.00;;;12.30;78.85
71248;BME280;73325;51.138;6.950;2024-03-06T11:20:43;101771.00;;;12.71;79.59
71248;BME280;73325;51.138;6.950;2024-03-06T11:23:13;101773.00;;;12.85;79.11
71248;BME280;73325;51.138;6.950;2024-03-06T11:28:19;101770.00;;;12.94;80.09
71248;BME280;73325;51.138;6.950;2024-03-06T11:30:46;101769.00;;;12.88;80.22
71248;BME280;73325;51.138;6.950;2024-03-06T11:33:16;101770.00;;;12.76;80.37
71248;BME280;73325;51.138;6.950;2024-03-06T11:36:14;101771.00;;;12.58;82.24
71248;BME280;73325;51.138;6.950;2024-03-06T11:38:17;101771.00;;;12.39;83.18
71248;BME280;73325;51.138;6.950;2024-03-06T11:40:48;101772.00;;;12.20;84.68
71248;BME280;73325;51.138;6.950;2024-03-06T11:43:25;101772.00;;;12.02;84.50
71248;BME280;73325;51.138;6.950;2024-03-06T11:45:49;101772.00;;;11.86;84.78
71248;BME280;73325;51.138;6.950;2024-03-06T11:48:19;101771.00;;;11.70;84.90
71248;BME280;73325;51.138;6.950;2024-03-06T11:50:50;101769.00;;;11.56;85.12
71248;BME280;73325;51.138;6.950;2024-03-06T11:53:20;101769.00;;;11.44;86.82
71248;BME280;73325;51.138;6.950;2024-03-06T11:55:50;101768.00;;;11.34;87.49
71248;BME280;73325;51.138;6.950;2024-03-06T11:58:20;101768.00;;;11.27;86.58
71248;BME280;73325;51.138;6.950;2024-03-06T12:00:53;101768.00;;;11.22;85.86
71248;BME280;73325;51.138;6.950;2024-03-06T12:03:22;101767.00;;;11.19;87.04
71248;BME280;73325;51.138;6.950;2024-03-06T12:05:52;101766.00;;;11.17;87.72
71248;BME280;73325;51.138;6.950;2024-03-06T12:08:22;101765.00;;;11.17;87.77
71248;BME280;73325;51.138;6.950;2024-03-06T12:10:52;101764.00;;;11.17;86.30
71248;BME280;73325;51.138;6.950;2024-03-06T12:13:22;101762.00;;;11.18;87.14
71248;BME280;73325;51.138;6.950;2024-03-06T12:15:53;101761.00;;;11.19;87.07
71248;BME280;73325;51.138;6.950;2024-03-06T12:18:24;101760.00;;;11.22;87.08
71248;BME280;73325;51.138;6.950;2024-03-06T12:20:53;101760.00;;;11.26;86.26
71248;BME280;73325;51.138;6.950;2024-03-06T12:23:23;101761.00;;;11.31;84.59
71248;BME280;73325;51.138;6.950;2024-03-06T12:26:07;101761.00;;;11.34;83.55
71248;BME280;73325;51.138;6.950;2024-03-06T12:28:24;101760.00;;;11.36;84.34
71248;BME280;73325;51.138;6.950;2024-03-06T12:30:55;101759.00;;;11.39;84.56
71248;BME280;73325;51.138;6.950;2024-03-06T12:33:25;101759.00;;;11.42;83.10
71248;BME280;73325;51.138;6.950;2024-03-06T12:36:07;101759.00;;;11.46;85.03
71248;BME280;73325;51.138;6.950;2024-03-06T12:38:28;101759.00;;;11.52;85.60
71248;BME280;73325;51.138;6.950;2024-03-06T12:40:56;101760.00;;;11.59;83.49
71248;BME280;73325;51.138;6.950;2024-03-06T12:43:26;101759.00;;;11.65;82.47
71248;BME280;73325;51.138;6.950;2024-03-06T12:45:56;101758.00;;;11.69;80.45
71248;BME280;73325;51.138;6.950;2024-03-06T12:48:27;101757.00;;;11.72;82.07
71248;BME280;73325;51.138;6.950;2024-03-06T12:50:57;101756.00;;;11.72;83.05
71248;BME280;73325;51.138;6.950;2024-03-06T12:53:27;101754.00;;;11.72;81.10
71248;BME280;73325;51.138;6.950;2024-03-06T12:55:58;101753.00;;;11.70;82.79
71248;BME280;73325;51.138;6.950;2024-03-06T12:58:28;101752.00;;;11.67;82.42
71248;BME280;73325;51.138;6.950;2024-03-06T13:00:58;101751.00;;;11.64;83.76
71248;BME280;73325;51.138;6.950;2024-03-06T13:03:29;101750.00;;;11.62;83.86
71248;BME280;73325;51.138;6.950;2024-03-06T13:05:59;101748.00;;;11.62;81.87
71248;BME280;73325;51.138;6.950;2024-03-06T13:08:30;101745.00;;;11.63;81.57
71248;BME280;73325;51.138;6.950;2024-03-06T13:11:00;101744.00;;;11.67;81.44
71248;BME280;73325;51.138;6.950;2024-03-06T13:13:31;101743.00;;;11.71;81.64